createdAt,value
2018-05-16T00:00:28.006Z,15.80
2018-05-16T00:02:55.533Z,15.80
2018-05-16T00:05:23.022Z,15.80
2018-05-16T00:07:51.302Z,15.80
2018-05-16T00:10:18.789Z,15.80
2018-05-16T00:12:47.079Z,15.80
2018-05-16T00:15:14.565Z,15.80
2018-05-16T00:17:42.301Z,15.80
2018-05-16T00:20:09.800Z,15.80
2018-05-16T00:22:37.290Z,15.80
2018-05-16T00:25:04.808Z,15.80
2018-05-16T00:27:32.295Z,15.70
2018-05-16T00:29:59.810Z,15.70
2018-05-16T00:32:27.298Z,15.70
2018-05-16T00:34:54.818Z,15.70
2018-05-16T00:37:22.297Z,15.90
2018-05-16T00:39:50.578Z,15.90
2018-05-16T00:42:18.829Z,15.90
2018-05-16T00:44:46.349Z,16.00
2018-05-16T00:47:14.854Z,15.90
2018-05-16T00:49:42.400Z,15.80
2018-05-16T00:52:10.653Z,15.70
2018-05-16T00:54:38.137Z,15.70
2018-05-16T00:57:05.657Z,15.70
2018-05-16T00:59:33.145Z,15.60
2018-05-16T01:02:00.663Z,15.60
2018-05-16T01:04:28.157Z,15.70
2018-05-16T01:06:56.445Z,15.80
2018-05-16T01:12:15.257Z,15.80
2018-05-16T01:14:42.753Z,15.80
2018-05-16T01:17:10.274Z,15.80
2018-05-16T01:19:37.765Z,15.90
2018-05-16T01:22:06.058Z,15.70
2018-05-16T01:24:33.545Z,15.70
2018-05-16T01:27:01.067Z,15.60
2018-05-16T01:29:28.572Z,15.60
2018-05-16T01:31:56.091Z,15.60
2018-05-16T01:34:23.582Z,15.50
2018-05-16T01:36:51.111Z,15.50
2018-05-16T01:39:18.604Z,15.40
2018-05-16T01:41:46.147Z,15.40
2018-05-16T01:44:13.638Z,15.30
2018-05-16T01:46:41.117Z,15.30
2018-05-16T01:49:19.598Z,15.30
2018-05-16T01:51:47.871Z,15.20
2018-05-16T01:54:15.373Z,15.20
2018-05-16T01:56:42.848Z,15.20
2018-05-16T01:59:10.365Z,15.00
2018-05-16T02:01:37.846Z,14.80
2018-05-16T02:04:05.362Z,14.70
2018-05-16T02:06:32.846Z,14.60
2018-05-16T02:09:00.362Z,14.50
2018-05-16T02:11:27.847Z,14.40
2018-05-16T02:13:56.150Z,14.20
2018-05-16T02:16:23.645Z,14.20
2018-05-16T02:18:51.133Z,14.10
2018-05-16T02:21:18.656Z,14.00
2018-05-16T02:23:46.271Z,13.80
2018-05-16T02:26:13.773Z,13.80
2018-05-16T02:28:41.279Z,13.70
2018-05-16T02:31:08.798Z,13.70
2018-05-16T02:33:36.282Z,13.70
2018-05-16T02:36:03.813Z,13.60
2018-05-16T02:38:31.300Z,13.60
2018-05-16T02:40:58.822Z,13.60
2018-05-16T02:43:27.080Z,13.50
2018-05-16T02:45:54.610Z,13.50
2018-05-16T02:48:22.116Z,13.50
2018-05-16T02:50:49.644Z,13.60
2018-05-16T02:53:17.146Z,13.60
2018-05-16T02:55:44.663Z,13.60
2018-05-16T02:58:12.924Z,13.50
2018-05-16T03:00:40.466Z,13.50
2018-05-16T03:03:07.954Z,13.50
2018-05-16T03:05:35.781Z,13.50
2018-05-16T03:08:04.038Z,13.50
2018-05-16T03:10:31.538Z,13.40
2018-05-16T03:12:59.838Z,13.40
2018-05-16T03:15:27.336Z,13.40
2018-05-16T03:17:54.854Z,13.40
2018-05-16T03:20:22.342Z,13.40
2018-05-16T03:22:50.622Z,13.50
2018-05-16T03:25:18.119Z,13.40
2018-05-16T03:27:45.629Z,13.50
2018-05-16T03:30:13.122Z,13.50
2018-05-16T03:32:40.661Z,13.50
2018-05-16T03:35:08.147Z,13.50
2018-05-16T03:37:35.665Z,13.50
2018-05-16T03:40:03.917Z,13.50
2018-05-16T03:42:31.438Z,13.40
2018-05-16T03:44:58.928Z,13.40
2018-05-16T03:47:26.464Z,13.40
2018-05-16T03:49:54.733Z,13.40
2018-05-16T03:52:22.261Z,13.40
2018-05-16T03:54:49.752Z,13.40
2018-05-16T03:57:29.293Z,13.40
2018-05-16T04:00:08.523Z,13.30
2018-05-16T04:02:48.125Z,13.30
2018-05-16T04:05:15.616Z,13.30
2018-05-16T04:07:43.393Z,13.30
2018-05-16T04:10:11.650Z,13.30
2018-05-16T04:12:39.145Z,13.30
2018-05-16T04:15:06.681Z,13.40
2018-05-16T04:17:34.166Z,13.50
2018-05-16T04:20:01.690Z,13.50
2018-05-16T04:22:29.941Z,13.50
2018-05-16T04:24:57.465Z,13.50
2018-05-16T04:27:24.948Z,13.50
2018-05-16T04:29:52.448Z,13.50
2018-05-16T04:32:19.938Z,13.50
2018-05-16T04:34:47.477Z,13.60
2018-05-16T04:37:14.974Z,13.60
2018-05-16T04:39:42.498Z,13.60
2018-05-16T04:42:09.984Z,13.70
2018-05-16T04:44:37.502Z,13.70
2018-05-16T04:47:05.027Z,13.80
2018-05-16T04:49:32.574Z,13.90
2018-05-16T04:52:00.067Z,14.00
2018-05-16T04:54:27.554Z,14.00
2018-05-16T04:56:55.082Z,14.10
2018-05-16T04:59:22.571Z,14.30
2018-05-16T05:01:50.111Z,14.20
2018-05-16T05:04:17.651Z,14.30
2018-05-16T05:06:45.238Z,14.30
2018-05-16T05:09:13.514Z,14.20
2018-05-16T05:11:41.061Z,14.20
2018-05-16T05:14:08.554Z,14.20
2018-05-16T05:16:36.085Z,14.20
2018-05-16T05:19:03.600Z,14.20
2018-05-16T05:21:31.144Z,14.30
2018-05-16T05:23:58.746Z,14.40
2018-05-16T05:26:27.000Z,14.70
2018-05-16T05:28:54.520Z,14.70
2018-05-16T05:31:22.826Z,14.90
2018-05-16T05:33:51.094Z,15.00
2018-05-16T05:36:18.577Z,15.00
2018-05-16T05:38:46.869Z,15.10
2018-05-16T05:41:14.376Z,15.10
2018-05-16T05:43:41.902Z,15.20
2018-05-16T05:46:09.412Z,15.30
2018-05-16T05:48:36.936Z,15.80
2018-05-16T05:51:04.429Z,17.70
2018-05-16T05:53:32.713Z,21.70
2018-05-16T05:56:00.966Z,23.20
2018-05-16T05:58:28.481Z,23.10
2018-05-16T06:00:56.722Z,25.00
2018-05-16T06:03:24.250Z,25.00
2018-05-16T06:05:51.745Z,25.90
2018-05-16T06:08:19.261Z,26.60
2018-05-16T06:10:46.765Z,26.80
2018-05-16T06:13:15.142Z,27.30
2018-05-16T06:15:43.401Z,27.70
2018-05-16T06:18:10.950Z,27.70
2018-05-16T06:20:38.446Z,27.50
2018-05-16T06:23:05.939Z,27.50
2018-05-16T06:25:33.488Z,27.20
2018-05-16T06:28:00.977Z,26.80
2018-05-16T06:30:28.483Z,26.90
2018-05-16T06:32:55.969Z,26.80
2018-05-16T06:35:23.491Z,26.80
2018-05-16T06:37:50.986Z,26.90
2018-05-16T06:40:19.304Z,27.00
2018-05-16T06:42:46.792Z,26.90
2018-05-16T06:45:14.323Z,27.10
2018-05-16T06:47:41.806Z,27.80
2018-05-16T06:50:09.329Z,28.50
2018-05-16T06:52:36.805Z,29.00
2018-05-16T06:55:04.330Z,29.40
2018-05-16T06:57:31.810Z,29.60
2018-05-16T06:59:59.345Z,29.70
2018-05-16T07:02:26.836Z,30.10
2018-05-16T07:04:54.386Z,30.80
2018-05-16T07:07:22.649Z,30.80
2018-05-16T07:09:50.138Z,30.80
2018-05-16T07:12:18.426Z,30.10
2018-05-16T07:14:45.910Z,30.10
2018-05-16T07:17:13.442Z,29.30
2018-05-16T07:19:40.928Z,29.60
2018-05-16T07:22:08.461Z,29.80
2018-05-16T07:24:35.948Z,30.00
2018-05-16T07:27:03.465Z,30.40
2018-05-16T07:29:31.725Z,31.80
2018-05-16T07:31:59.249Z,31.80
2018-05-16T07:34:26.729Z,31.80
2018-05-16T07:36:55.014Z,31.50
2018-05-16T07:39:22.510Z,31.40
2018-05-16T07:41:50.036Z,31.70
2018-05-16T07:44:17.522Z,31.90
2018-05-16T07:46:45.051Z,32.00
2018-05-16T07:49:12.550Z,31.80
2018-05-16T07:51:40.089Z,32.10
2018-05-16T07:54:07.570Z,32.60
2018-05-16T07:56:35.059Z,33.00
2018-05-16T07:59:03.338Z,32.90
2018-05-16T08:01:31.593Z,33.20
2018-05-16T08:03:59.118Z,33.10
2018-05-16T08:06:26.625Z,32.30
2018-05-16T08:08:54.155Z,32.80
2018-05-16T08:11:21.653Z,33.50
2018-05-16T08:13:49.181Z,33.10
2018-05-16T08:16:17.437Z,30.90
2018-05-16T08:18:44.962Z,30.80
2018-05-16T08:21:12.450Z,31.60
2018-05-16T08:23:39.999Z,31.90
2018-05-16T08:26:07.493Z,31.90
2018-05-16T08:28:34.973Z,31.90
2018-05-16T08:31:02.488Z,31.60
2018-05-16T08:33:30.786Z,31.00
2018-05-16T08:35:59.079Z,30.60
2018-05-16T08:38:26.564Z,30.60
2018-05-16T08:40:54.866Z,30.10
2018-05-16T08:43:22.350Z,30.10
2018-05-16T08:45:49.868Z,30.00
2018-05-16T08:48:17.428Z,29.20
2018-05-16T08:50:45.034Z,29.40
2018-05-16T08:53:12.531Z,29.80
2018-05-16T08:55:40.042Z,27.80
2018-05-16T08:58:07.532Z,26.60
2018-05-16T09:00:35.054Z,26.70
2018-05-16T09:03:02.622Z,26.50
2018-05-16T09:05:30.101Z,26.30
2018-05-16T09:07:57.589Z,26.00
2018-05-16T09:10:25.066Z,25.30
2018-05-16T09:12:52.568Z,25.20
2018-05-16T09:15:20.819Z,25.30
2018-05-16T09:17:48.333Z,25.20
2018-05-16T09:20:15.824Z,27.10
2018-05-16T09:22:43.337Z,28.70
2018-05-16T09:25:10.917Z,29.60
2018-05-16T09:27:39.429Z,30.10
2018-05-16T09:30:06.913Z,30.00
2018-05-16T09:32:35.170Z,30.30
2018-05-16T09:35:02.703Z,30.30
2018-05-16T09:37:30.217Z,29.80
2018-05-16T09:39:57.704Z,29.60
2018-05-16T09:42:25.234Z,29.60
2018-05-16T09:44:52.718Z,29.30
2018-05-16T09:47:20.247Z,28.50
2018-05-16T09:49:47.745Z,27.50
2018-05-16T09:52:15.229Z,26.40
2018-05-16T09:54:42.758Z,25.90
2018-05-16T09:57:10.674Z,25.80
2018-05-16T09:59:38.195Z,25.60
2018-05-16T10:02:06.457Z,25.50
2018-05-16T10:04:33.970Z,25.50
2018-05-16T10:07:01.450Z,25.30
2018-05-16T10:09:28.974Z,25.20
2018-05-16T10:11:56.469Z,25.60
2018-05-16T10:14:24.779Z,27.30
2018-05-16T10:16:52.332Z,27.30
2018-05-16T10:19:19.817Z,27.50
2018-05-16T10:21:47.312Z,28.20
2018-05-16T10:24:14.833Z,28.20
2018-05-16T10:26:42.310Z,27.70
2018-05-16T10:29:09.855Z,27.30
2018-05-16T10:31:37.349Z,26.60
2018-05-16T10:34:04.856Z,25.50
2018-05-16T10:36:32.385Z,24.60
2018-05-16T10:38:59.926Z,23.90
2018-05-16T10:41:27.435Z,23.00
2018-05-16T10:43:55.677Z,21.90
2018-05-16T10:46:23.198Z,21.90
2018-05-16T10:48:50.685Z,21.50
2018-05-16T10:51:18.995Z,21.10
2018-05-16T10:53:46.497Z,21.10
2018-05-16T10:56:14.027Z,21.00
2018-05-16T10:58:41.514Z,20.90
2018-05-16T11:01:09.042Z,20.70
2018-05-16T11:03:36.529Z,20.60
2018-05-16T11:06:04.058Z,20.40
2018-05-16T11:08:31.554Z,20.30
2018-05-16T11:10:59.078Z,20.10
2018-05-16T11:13:26.566Z,20.00
2018-05-16T11:15:54.098Z,19.80
2018-05-16T11:18:22.349Z,19.50
2018-05-16T11:20:49.893Z,19.50
2018-05-16T11:23:17.388Z,19.30
2018-05-16T11:25:46.544Z,18.80
2018-05-16T11:28:14.077Z,18.80
2018-05-16T11:30:41.645Z,18.90
2018-05-16T11:33:09.155Z,19.20
2018-05-16T11:35:36.658Z,19.50
2018-05-16T11:38:04.182Z,20.10
2018-05-16T11:40:31.678Z,20.70
2018-05-16T11:42:59.209Z,21.50
2018-05-16T11:45:26.713Z,22.20
2018-05-16T11:47:54.995Z,23.40
2018-05-16T11:50:23.292Z,24.00
2018-05-16T11:52:50.826Z,23.90
2018-05-16T11:55:18.351Z,24.00
2018-05-16T11:57:45.877Z,23.90
2018-05-16T12:00:13.377Z,23.60
2018-05-16T12:02:41.658Z,22.50
2018-05-16T12:10:52.005Z,21.80
2018-05-16T12:13:20.298Z,21.80
2018-05-16T12:15:48.557Z,21.90
2018-05-16T12:18:16.074Z,21.90
2018-05-16T12:20:43.572Z,21.90
2018-05-16T12:23:11.100Z,21.80
2018-05-16T12:25:38.590Z,22.00
2018-05-16T12:28:06.089Z,22.10
2018-05-16T12:30:33.614Z,22.20
2018-05-16T12:33:01.889Z,22.40
2018-05-16T12:35:29.427Z,22.40
2018-05-16T12:37:56.941Z,22.30
2018-05-16T12:40:24.455Z,22.00
2018-05-16T12:43:03.718Z,21.90
2018-05-16T12:45:31.233Z,21.90
2018-05-16T12:47:59.497Z,22.00
2018-05-16T12:50:27.021Z,21.90
2018-05-16T12:52:54.507Z,21.90
2018-05-16T12:55:22.034Z,21.70
2018-05-16T12:57:49.524Z,21.60
2018-05-16T13:00:17.809Z,21.50
2018-05-16T13:02:46.067Z,21.50
2018-05-16T13:05:13.590Z,21.50
2018-05-16T13:07:41.074Z,21.40
2018-05-16T13:10:08.616Z,21.50
2018-05-16T13:12:36.346Z,21.40
2018-05-16T13:15:03.837Z,21.10
2018-05-16T13:17:31.359Z,21.00
2018-05-16T13:19:58.883Z,21.10
2018-05-16T13:22:26.421Z,21.30
2018-05-16T13:24:53.902Z,21.60
2018-05-16T13:27:21.488Z,21.90
2018-05-16T13:29:49.046Z,21.90
2018-05-16T13:32:16.582Z,21.90
2018-05-16T13:34:44.081Z,21.80
2018-05-16T13:37:11.623Z,21.70
2018-05-16T13:39:39.131Z,21.50
2018-05-16T13:42:06.666Z,21.50
2018-05-16T13:44:34.153Z,21.40
2018-05-16T13:47:01.638Z,21.40
2018-05-16T13:49:29.165Z,21.30
2018-05-16T13:51:56.659Z,21.20
2018-05-16T13:54:24.198Z,21.00
2018-05-16T13:56:52.476Z,20.60
2018-05-16T13:59:19.989Z,20.60
2018-05-16T14:01:47.479Z,20.50
2018-05-16T14:04:14.998Z,20.20
2018-05-16T14:06:43.261Z,19.80
2018-05-16T14:09:10.803Z,19.80
2018-05-16T14:11:38.305Z,19.70
2018-05-16T14:14:05.787Z,19.60
2018-05-16T14:16:33.310Z,19.60
2018-05-16T14:19:00.818Z,19.70
2018-05-16T14:21:28.352Z,19.50
2018-05-16T14:23:55.920Z,19.50
2018-05-16T14:26:23.357Z,19.30
2018-05-16T14:28:50.845Z,19.30
2018-05-16T14:31:19.144Z,19.10
2018-05-16T14:33:48.104Z,19.00
2018-05-16T14:36:15.623Z,19.00
2018-05-16T14:38:43.883Z,18.90
2018-05-16T14:41:11.397Z,18.90
2018-05-16T14:43:38.903Z,18.80
2018-05-16T14:46:06.443Z,18.70
2018-05-16T14:48:33.947Z,18.60
2018-05-16T14:51:01.496Z,18.50
2018-05-16T14:53:29.017Z,18.60
2018-05-16T14:55:56.506Z,18.70
2018-05-16T14:58:24.030Z,18.80
2018-05-16T15:00:51.534Z,19.00
2018-05-16T15:03:19.047Z,19.30
2018-05-16T15:05:46.581Z,19.60
2018-05-16T15:08:14.161Z,19.60
2018-05-16T15:10:41.643Z,19.80
2018-05-16T15:13:09.931Z,20.00
2018-05-16T15:15:38.217Z,20.20
2018-05-16T15:18:06.474Z,20.60
2018-05-16T15:20:34.003Z,20.60
2018-05-16T15:23:01.510Z,21.00
2018-05-16T15:25:29.035Z,20.90
2018-05-16T15:27:56.565Z,20.90
2018-05-16T15:30:24.084Z,21.00
2018-05-16T15:32:51.575Z,21.30
2018-05-16T15:35:19.093Z,21.50
2018-05-16T15:37:46.578Z,21.50
2018-05-16T15:40:14.110Z,21.40
2018-05-16T15:42:41.589Z,21.30
2018-05-16T15:45:09.102Z,21.20
2018-05-16T15:47:36.581Z,21.30
2018-05-16T15:50:04.870Z,21.50
2018-05-16T15:52:33.114Z,21.40
2018-05-16T15:55:00.670Z,21.40
2018-05-16T15:57:28.167Z,21.40
2018-05-16T15:59:55.663Z,21.50
2018-05-16T16:02:23.953Z,20.90
2018-05-16T16:04:52.210Z,20.50
2018-05-16T16:07:19.729Z,20.50
2018-05-16T16:09:47.212Z,20.10
2018-05-16T16:12:14.730Z,19.70
2018-05-16T16:14:42.223Z,19.30
2018-05-16T16:17:09.742Z,18.90
2018-05-16T16:19:37.235Z,18.50
2018-05-16T16:22:04.753Z,18.20
2018-05-16T16:24:32.322Z,17.80
2018-05-16T16:26:59.761Z,17.50
2018-05-16T16:29:27.253Z,17.30
2018-05-16T16:31:54.782Z,17.00
2018-05-16T16:34:22.265Z,16.70
2018-05-16T16:36:49.822Z,16.40
2018-05-16T16:39:17.330Z,16.10
2018-05-16T16:41:44.812Z,15.70
2018-05-16T16:44:12.334Z,15.40
2018-05-16T16:46:40.098Z,15.00
2018-05-16T16:49:07.613Z,14.80
2018-05-16T16:51:35.095Z,14.60
2018-05-16T16:54:02.610Z,14.50
2018-05-16T16:56:30.095Z,14.40
2018-05-16T16:58:57.624Z,14.30
2018-05-16T17:01:25.111Z,14.40
2018-05-16T17:03:53.410Z,14.40
2018-05-16T17:06:20.928Z,14.40
2018-05-16T17:08:48.485Z,14.30
2018-05-16T17:11:15.961Z,14.40
2018-05-16T17:13:43.450Z,14.40
2018-05-16T17:16:10.994Z,14.30
2018-05-16T17:18:38.489Z,14.30
2018-05-16T17:21:06.014Z,14.20
2018-05-16T17:23:33.503Z,14.20
2018-05-16T17:26:01.019Z,14.20
2018-05-16T17:28:28.514Z,14.30
2018-05-16T17:30:56.794Z,14.30
2018-05-16T17:33:24.296Z,14.20
2018-05-16T17:35:51.829Z,14.20
2018-05-16T17:38:20.102Z,14.20
2018-05-16T17:40:47.641Z,14.10
2018-05-16T17:43:16.610Z,14.10
2018-05-16T17:45:44.904Z,14.20
2018-05-16T17:48:12.649Z,14.20
2018-05-16T17:50:40.320Z,14.30
2018-05-16T17:53:07.813Z,14.30
2018-05-16T17:55:36.062Z,14.20
2018-05-16T17:58:03.579Z,14.20
2018-05-16T18:00:31.072Z,14.30
2018-05-16T18:02:59.439Z,14.40
2018-05-16T18:05:27.702Z,14.30
2018-05-16T18:07:55.235Z,14.30
2018-05-16T18:10:22.734Z,14.40
2018-05-16T18:16:17.960Z,14.40
2018-05-16T18:18:46.738Z,14.40
2018-05-16T18:21:14.262Z,14.40
2018-05-16T18:23:41.784Z,14.30
2018-05-16T18:26:09.271Z,14.40
2018-05-16T18:28:37.550Z,14.40
2018-05-16T18:31:05.840Z,14.40
2018-05-16T18:33:33.363Z,14.30
2018-05-16T18:36:00.866Z,14.40
2018-05-16T18:38:28.386Z,14.40
2018-05-16T18:40:55.869Z,14.40
2018-05-16T18:43:23.388Z,14.40
2018-05-16T18:45:50.875Z,14.40
2018-05-16T18:48:18.743Z,14.40
2018-05-16T18:50:46.226Z,14.50
2018-05-16T18:53:14.503Z,14.50
2018-05-16T18:55:42.087Z,14.50
2018-05-16T18:58:10.349Z,14.50
2018-05-16T19:00:37.866Z,14.40
2018-05-16T19:03:05.346Z,14.40
2018-05-16T19:05:32.866Z,14.40
2018-05-16T19:08:00.353Z,14.40
2018-05-16T19:10:28.642Z,14.30
2018-05-16T19:12:56.900Z,14.20
2018-05-16T19:15:25.183Z,14.20
2018-05-16T19:17:52.734Z,14.20
2018-05-16T19:20:20.245Z,14.10
2018-05-16T19:22:47.745Z,14.10
2018-05-16T19:25:16.046Z,14.00
2018-05-16T19:27:44.300Z,14.00
2018-05-16T19:30:12.090Z,13.90
2018-05-16T19:32:39.583Z,13.90
2018-05-16T19:35:07.069Z,13.90
2018-05-16T19:37:34.599Z,13.90
2018-05-16T19:40:02.110Z,13.80
2018-05-16T19:42:29.679Z,13.80
2018-05-16T19:44:57.161Z,13.70
2018-05-16T19:47:24.682Z,13.70
2018-05-16T19:49:52.191Z,13.70
2018-05-16T19:52:19.722Z,13.60
2018-05-16T19:54:47.212Z,13.60
2018-05-16T19:57:14.730Z,13.60
2018-05-16T19:59:42.222Z,13.60
2018-05-16T20:02:09.748Z,13.60
2018-05-16T20:04:37.248Z,13.60
2018-05-16T20:07:04.793Z,13.60
2018-05-16T20:09:32.291Z,13.60
2018-05-16T20:11:59.810Z,13.60
2018-05-16T20:14:27.296Z,13.50
2018-05-16T20:16:55.594Z,13.50
2018-05-16T20:19:23.101Z,13.50
2018-05-16T20:21:50.642Z,13.50
2018-05-16T20:24:18.176Z,13.50
2018-05-16T20:26:45.697Z,13.40
2018-05-16T20:29:13.231Z,13.40
2018-05-16T20:31:40.713Z,13.40
2018-05-16T20:34:08.237Z,13.50
2018-05-16T20:36:35.723Z,13.50
2018-05-16T20:39:03.262Z,13.50
2018-05-16T20:41:30.754Z,13.50
2018-05-16T20:43:58.285Z,13.50
2018-05-16T20:46:25.768Z,13.50
2018-05-16T20:48:53.289Z,13.60
2018-05-16T20:51:20.777Z,13.70
2018-05-16T20:53:49.064Z,13.70
2018-05-16T20:56:17.317Z,13.70
2018-05-16T20:58:44.877Z,13.70
2018-05-16T21:01:12.334Z,13.70
2018-05-16T21:03:39.850Z,13.70
2018-05-16T21:06:07.337Z,13.60
2018-05-16T21:08:34.865Z,13.70
2018-05-16T21:11:02.358Z,13.70
2018-05-16T21:13:29.849Z,13.70
2018-05-16T21:15:57.365Z,13.70
2018-05-16T21:18:24.856Z,13.70
2018-05-16T21:20:52.378Z,13.70
2018-05-16T21:23:19.862Z,13.70
2018-05-16T21:25:48.149Z,13.60
2018-05-16T21:28:16.401Z,13.60
2018-05-16T21:30:43.918Z,13.60
2018-05-16T21:33:12.169Z,13.60
2018-05-16T21:35:39.684Z,13.60
2018-05-16T21:38:07.169Z,13.60
2018-05-16T21:40:34.685Z,13.60
2018-05-16T21:43:02.170Z,13.60
2018-05-16T21:45:29.709Z,13.60
2018-05-16T21:47:57.199Z,13.60
2018-05-16T21:50:24.726Z,13.60
2018-05-16T21:52:52.221Z,13.70
2018-05-16T21:55:19.741Z,13.70
2018-05-16T21:57:47.229Z,13.70
2018-05-16T22:00:14.761Z,13.60
2018-05-16T22:02:43.424Z,13.60
2018-05-16T22:05:12.815Z,13.60
2018-05-16T22:07:41.097Z,13.50
2018-05-16T22:10:09.351Z,13.50
2018-05-16T22:12:36.866Z,13.40
2018-05-16T22:15:05.121Z,13.40
2018-05-16T22:17:32.642Z,13.40
2018-05-16T22:20:00.134Z,13.40
2018-05-16T22:22:27.658Z,13.40
2018-05-16T22:24:55.154Z,13.40
2018-05-16T22:27:22.670Z,13.40
2018-05-16T22:29:50.158Z,13.30
2018-05-16T22:32:23.409Z,13.30
2018-05-16T22:34:56.494Z,13.30
2018-05-16T22:37:29.790Z,13.30
2018-05-16T22:40:03.786Z,13.20
2018-05-16T22:42:30.806Z,13.10
2018-05-16T22:45:04.010Z,13.10
2018-05-16T22:47:31.530Z,13.00
2018-05-16T22:49:59.014Z,13.00
2018-05-16T22:52:26.535Z,12.90
2018-05-16T22:54:54.025Z,12.90
2018-05-16T22:57:22.337Z,12.80
2018-05-16T22:59:49.829Z,12.70
2018-05-16T23:02:18.082Z,12.70
2018-05-16T23:04:45.598Z,12.70
2018-05-16T23:07:13.854Z,12.70
2018-05-16T23:09:41.377Z,12.70
2018-05-16T23:12:08.865Z,12.70
2018-05-16T23:14:36.393Z,12.60
2018-05-16T23:17:04.641Z,12.60
2018-05-16T23:19:32.159Z,12.60
2018-05-16T23:21:59.641Z,12.50
2018-05-16T23:24:27.173Z,12.50
2018-05-16T23:26:54.661Z,12.40
2018-05-16T23:29:22.951Z,12.20
2018-05-16T23:31:50.429Z,12.20
2018-05-16T23:34:18.713Z,12.00
2018-05-16T23:36:46.970Z,11.90
2018-05-16T23:39:14.453Z,11.90
2018-05-16T23:41:41.967Z,11.80
2018-05-16T23:44:09.453Z,11.80
2018-05-16T23:46:36.982Z,11.70
2018-05-16T23:49:04.481Z,11.70
2018-05-16T23:51:32.006Z,11.70
2018-05-16T23:53:59.493Z,11.70
2018-05-16T23:56:27.015Z,11.70
2018-05-16T23:58:54.501Z,11.70
